Metar Cercanos

 

LEPA - Palma De Mallorc, Spain
Distance from station: ONO 38km
Actualización: 18/07/2018 03:00
Few Clouds
Few Clouds
 Viento del NE
Viento: NE 7 km/h
Temperatura: 22°C
Rocío: 21°C
Humedad: 94%
Barómetro: 1016 hPa
Clouds: Few Clouds
Visibility: 10 km
Cloud details: Few Clouds 610 m
2018/07/18 01:00 LEPA 180100Z 04004KT 9999 FEW020 22/21 Q1016 NOSIG
LEMH - Mahon/Menorca Is, Spain
Distance from station: ENE 105km
Actualización: 18/07/2018 03:00
Despejado
Despejado
 Viento del S
Viento: S 2 km/h
Temperatura: 21°C
Rocío: 18°C
Humedad: 83%
Barómetro: 1016 hPa
Clouds: Despejado
Visibility: 10 km
2018/07/18 01:00 LEMH 180100Z AUTO 19001KT 9999 NCD 21/18 Q1016
 
LEIB - Ibiza/Es Codola, Spain
Distance from station: OSO 165km
Actualización: 18/07/2018 03:00
Despejado
Despejado
 Viento del E
Viento: E 9 km/h
Temperatura: 25°C
Rocío: 22°C
Humedad: 83%
Barómetro: 1015 hPa
Resumen: Despejado
Visibility: greater than 10 km
2018/07/18 01:00 LEIB 180100Z 08005KT 060V120 CAVOK 25/22 Q1015 NOSIG
LEBL - Barcelona Airpor, Spain
Distance from station: NNO 225km
Actualización: 18/07/2018 03:00
Despejado
Despejado
 Viento del NNO
Viento: NNO 6 km/h
Temperatura: 24°C
Rocío: 20°C
Humedad: 78%
Barómetro: 1016 hPa
Resumen: Despejado
Visibility: greater than 10 km
2018/07/18 01:00 LEBL 180100Z 33003KT CAVOK 24/20 Q1016 NOSIG
 
LEVC - Valencia (civ/Mi, Spain
Distance from station: NO 188km
Actualización: 18/07/2018 03:00
Despejado
Despejado
 Viento del NO
Viento: NO 9 km/h
Temperatura: 24°C
Rocío: 20°C
Humedad: 78%
Barómetro: 1016 hPa
Resumen: Despejado
Visibility: greater than 10 km
2018/07/18 01:00 LEVC 180100Z 31005KT CAVOK 24/20 Q1016 NOSIG
LEGE - Gerona/Costa Bra, Spain
Distance from station: N 276km
Actualización: 18/07/2018 03:00
Few Clouds
Few Clouds
 Viento del O
Viento: O 6 km/h
Temperatura: 19°C
Rocío: 18°C
Humedad: 94%
Barómetro: 1017 hPa
Clouds: Few Clouds
Visibility: 10 km
Cloud details: Few Clouds 914 m
2018/07/18 01:00 LEGE 180100Z 27003KT 240V310 9999 FEW030 19/18 Q1017
 
LEAL - Alicante/El Alte, Spain
Distance from station: OSO 344km
Actualización: 18/07/2018 03:00
Despejado
Despejado
 Viento del varies
Viento: varies 2 km/h
Temperatura: 23°C
Rocío: 18°C
Humedad: 74%
Barómetro: 1015 hPa
Resumen: Despejado
Visibility: greater than 10 km
2018/07/18 01:00 LEAL 180100Z VRB01KT CAVOK 23/18 Q1015 NOSIG
LEAM - Almeria Airport, Spain
Distance from station: SSO 56km
Actualización: 18/07/2018 03:00
Despejado
Despejado
 Viento del NNO
Viento: NNO 13 km/h
Temperatura: 29°C
Rocío: 10°C
Humedad: 31%
Barómetro: 1013 hPa
Resumen: Despejado
Visibility: greater than 10 km
2018/07/18 01:00 LEAM 180100Z AUTO 34007KT CAVOK 29/10 Q1013
 
LEZG - Zaragoza (mil/Ci, Spain
Distance from station: NO 431km
Actualización: 18/07/2018 03:00
Few Clouds
Few Clouds
 Viento del E
Viento: E 9 km/h
Temperatura: 24°C
Rocío: 14°C
Humedad: 54%
Barómetro: 1014 hPa
Clouds: Few Clouds
Visibility: 10 km
Cloud details: Few Clouds 2591 m
2018/07/18 01:00 LEZG 180100Z 09005KT 9999 FEW085 24/14 Q1014
LEMD - Madrid/Barajas, Spain
Distance from station: ONO 234km
Actualización: 18/07/2018 03:00
Despejado
Despejado
 Viento del E
Viento: E 7 km/h
Temperatura: 24°C
Rocío: 13°C
Humedad: 50%
Barómetro: 1014 hPa
Resumen: Despejado
Visibility: greater than 10 km
2018/07/18 01:00 LEMD 180100Z 10004KT 070V150 CAVOK 24/13 Q1014 NOSIG
 
LEGR - Granada Airport, Spain
Distance from station: OSO 62km
Actualización: 18/07/2018 03:00
Despejado
Despejado
 Viento del varies
Viento: varies 2 km/h
Temperatura: 21°C
Rocío: 8°C
Humedad: 43%
Barómetro: 1016 hPa
Clouds: Despejado
Visibility: 10 km
2018/07/18 01:00 LEGR 180100Z AUTO VRB01KT 9999 NCD 21/08 Q1016
LEMG - Malaga (civ/Mil), Spain
Distance from station: OSO 227km
Actualización: 18/07/2018 03:00
Despejado
Despejado
 Viento del O
Viento: O 11 km/h
Temperatura: 23°C
Rocío: 8°C
Humedad: 38%
Barómetro: 1014 hPa
Resumen: Despejado
Visibility: greater than 10 km
2018/07/18 01:00 LEMG 180100Z 28006KT CAVOK 23/08 Q1014 NOSIG
 
LEZL - Sevilla (civ/Mil, Spain
Distance from station: S 318km
Actualización: 18/07/2018 03:00
Despejado
Despejado
 Viento del S
Viento: S 7 km/h
Temperatura: 21°C
Rocío: 15°C
Humedad: 69%
Barómetro: 1014 hPa
Clouds: Despejado
Visibility: 10 km
2018/07/18 01:00 LEZL 180100Z AUTO 18004KT 160V230 9999 NCD 21/15 Q1014
LEVT - Vitoria, Spain
Distance from station: NO 226km
Actualización: 18/07/2018 03:00
Muy nuboso
Muy nuboso
 Viento del NNE
Viento: NNE 7 km/h
Temperatura: 17°C
Rocío: 16°C
Humedad: 94%
Barómetro: 1017 hPa
Clouds: Muy nuboso
Visibility: 10 km
Cloud details: Few Clouds 427 m
Muy nuboso 640 m
2018/07/18 01:00 LEVT 180100Z 02004KT 9999 FEW014 BKN021 17/16 Q1017
 
LEBB - Bilbao/Sondica, Spain
Distance from station: NNO 235km
Actualización: 18/07/2018 03:00
Muy nuboso
Muy nuboso
 Viento del varies
Viento: varies 2 km/h
Temperatura: 22°C
Rocío: 19°C
Humedad: 83%
Barómetro: 1016 hPa
Clouds: Muy nuboso
Visibility: 10 km
Cloud details: Few Clouds 579 m
Muy nuboso 1128 m
2018/07/18 01:00 LEBB 180100Z AUTO VRB01KT 9999 FEW019/// BKN037/// 22/19 Q1016
LESO - San Sebastian/Fu, Spain
Distance from station: N 231km
Actualización: 18/07/2018 03:00
Despejado
Despejado
 Viento del varies
Viento: varies 4 km/h
Temperatura: 20°C
Rocío: 19°C
Humedad: 94%
Barómetro: 1016 hPa
Resumen: Despejado
Visibility: greater than 10 km
2018/07/18 01:00 LESO 180100Z AUTO VRB02KT CAVOK 20/19 Q1016
 
LEVD - Valladolid(Mil/C, Spain
Distance from station: ONO 239km
Actualización: 17/07/2018 21:30
NOT Current
Despejado
Despejado
 Viento del ENE
Viento: ENE 9 km/h
Temperatura: 25°C
Rocío: 11°C
Humedad: 42%
Barómetro: 1016 hPa
Resumen: Despejado
Visibility: greater than 10 km
2018/07/17 19:30 LEVD 171930Z 07005KT CAVOK 25/11 Q1016
LESA - Salamanca (civ/M, Spain
Distance from station: ONO 349km
Actualización: 17/07/2018 21:00
NOT Current
Despejado
Despejado
 Viento del O
Viento: O 4 km/h
Temperatura: 28°C
Indice Calor: 28°C
Rocío: 15°C
Humedad: 45%
Barómetro: 1015 hPa
Resumen: Despejado
Visibility: greater than 10 km
2018/07/17 19:00 LESA 171900Z 27002KT CAVOK 28/15 Q1015
 
LEXJ - Santander/Paraya, Spain
Distance from station: NNO 247km
Actualización: 18/07/2018 03:00
Muy nuboso
Muy nuboso
 Viento del varies
Viento: varies 4 km/h
Temperatura: 21°C
Rocío: 21°C
Humedad: 100%
Barómetro: 1016 hPa
Clouds: Muy nuboso
Visibility: 10 km
Cloud details: Parcialmente nuboso 488 m
Muy nuboso 762 m
Muy nuboso 1006 m
2018/07/18 01:00 LEXJ 180100Z AUTO VRB02KT 9999 4000W SCT016/// BKN025/// BKN033/// 21/21 Q1016
LEAS - Asturias/Aviles, Spain
Distance from station: NO 214km
Actualización: 18/07/2018 03:00
Mist, Parcialmente nuboso
Mist, Parcialmente nuboso
 Viento del SE
Viento: SE 6 km/h
Temperatura: 18°C
Rocío: 17°C
Humedad: 94%
Barómetro: 1016 hPa
Resumen: Mist
Clouds: Parcialmente nuboso
Visibility: 4 km
2018/07/18 01:00 LEAS 180100Z AUTO 14003KT 4200 BR NSC 18/17 Q1016
 
LECO - La Coruna/Alvedr, Spain
Distance from station: ONO 222km
Actualización: 18/07/2018 03:00
Cubierto
Cubierto
 Viento del calm
Viento: Calma
Temperatura: 17°C
Rocío: 16°C
Humedad: 94%
Barómetro: 1016 hPa
Clouds: Cubierto
Visibility: 10 km
Cloud details: Cubierto 732 m
2018/07/18 01:00 LECO 180100Z AUTO 00000KT 9999 OVC024/// 17/16 Q1016
LEVX - Vigo/Peinador, Spain
Distance from station: O 214km
Actualización: 18/07/2018 03:00
Despejado
Despejado
 Viento del varies
Viento: varies 4 km/h
Temperatura: 18°C
Rocío: 16°C
Humedad: 88%
Barómetro: 1014 hPa
Resumen: Despejado
Visibility: greater than 10 km
2018/07/18 01:00 LEVX 180100Z VRB02KT CAVOK 18/16 Q1014 NOSIG